sensor_id;sensor_type;location;lat;lon;timestamp;pressure;altitude;pressure_sealevel;temperature
63689;BMP280;54895;40.928;14.480;2023-02-11T00:01:38;103052.63;;;10.10
63689;BMP280;54895;40.928;14.480;2023-02-11T00:04:05;103071.41;;;10.48
63689;BMP280;54895;40.928;14.480;2023-02-11T00:06:34;103058.41;;;10.41
63689;BMP280;54895;40.928;14.480;2023-02-11T00:09:01;103057.97;;;10.42
63689;BMP280;54895;40.928;14.480;2023-02-11T00:11:29;103060.25;;;10.26
63689;BMP280;54895;40.928;14.480;2023-02-11T00:13:57;103043.31;;;9.96
63689;BMP280;54895;40.928;14.480;2023-02-11T00:16:24;103058.56;;;9.87
63689;BMP280;54895;40.928;14.480;2023-02-11T00:18:51;103061.47;;;10.16
63689;BMP280;54895;40.928;14.480;2023-02-11T00:21:22;103058.53;;;10.05
63689;BMP280;54895;40.928;14.480;2023-02-11T00:23:49;103059.66;;;10.22
63689;BMP280;54895;40.928;14.480;2023-02-11T00:26:18;103024.44;;;9.94
63689;BMP280;54895;40.928;14.480;2023-02-11T00:28:47;103058.47;;;10.32
63689;BMP280;54895;40.928;14.480;2023-02-11T00:31:15;103050.88;;;10.39
63689;BMP280;54895;40.928;14.480;2023-02-11T00:33:42;103058.31;;;10.68
63689;BMP280;54895;40.928;14.480;2023-02-11T00:39:37;103072.56;;;10.56
63689;BMP280;54895;40.928;14.480;2023-02-11T00:42:04;103065.59;;;10.26
63689;BMP280;54895;40.928;14.480;2023-02-11T00:44:30;103072.38;;;10.68
63689;BMP280;54895;40.928;14.480;2023-02-11T00:46:57;103068.38;;;10.64
63689;BMP280;54895;40.928;14.480;2023-02-11T00:49:24;103066.69;;;10.52
63689;BMP280;54895;40.928;14.480;2023-02-11T00:51:51;103071.16;;;10.37
63689;BMP280;54895;40.928;14.480;2023-02-11T00:54:19;103071.59;;;10.35
63689;BMP280;54895;40.928;14.480;2023-02-11T00:56:46;103057.59;;;10.17
63689;BMP280;54895;40.928;14.480;2023-02-11T00:59:13;103064.28;;;10.54
63689;BMP280;54895;40.928;14.480;2023-02-11T01:01:43;103056.03;;;10.10
63689;BMP280;54895;40.928;14.480;2023-02-11T01:04:10;103059.41;;;10.11
63689;BMP280;54895;40.928;14.480;2023-02-11T01:06:37;103060.91;;;9.94
63689;BMP280;54895;40.928;14.480;2023-02-11T01:09:05;103060.59;;;10.19
63689;BMP280;54895;40.928;14.480;2023-02-11T01:11:34;103061.47;;;10.16
63689;BMP280;54895;40.928;14.480;2023-02-11T01:14:01;103067.97;;;10.06
63689;BMP280;54895;40.928;14.480;2023-02-11T01:16:28;103065.59;;;10.08
63689;BMP280;54895;40.928;14.480;2023-02-11T01:18:55;103065.03;;;10.04
63689;BMP280;54895;40.928;14.480;2023-02-11T01:21:24;103068.25;;;10.17
63689;BMP280;54895;40.928;14.480;2023-02-11T01:23:51;103067.09;;;10.09
63689;BMP280;54895;40.928;14.480;2023-02-11T01:26:18;103067.84;;;10.51
63689;BMP280;54895;40.928;14.480;2023-02-11T01:28:45;103063.19;;;10.37
63689;BMP280;54895;40.928;14.480;2023-02-11T01:31:12;103068.19;;;10.44
63689;BMP280;54895;40.928;14.480;2023-02-11T01:33:39;103058.25;;;10.53
63689;BMP280;54895;40.928;14.480;2023-02-11T01:39:33;103034.50;;;10.64
63689;BMP280;54895;40.928;14.480;2023-02-11T01:42:00;103049.06;;;10.78
63689;BMP280;54895;40.928;14.480;2023-02-11T01:44:33;103045.56;;;10.95
63689;BMP280;54895;40.928;14.480;2023-02-11T01:47:00;103040.19;;;10.81
63689;BMP280;54895;40.928;14.480;2023-02-11T01:49:29;103041.88;;;10.93
63689;BMP280;54895;40.928;14.480;2023-02-11T01:54:30;103031.03;;;10.82
63689;BMP280;54895;40.928;14.480;2023-02-11T01:57:20;103012.75;;;10.66
63689;BMP280;54895;40.928;14.480;2023-02-11T01:59:55;103029.06;;;10.59
63689;BMP280;54895;40.928;14.480;2023-02-11T02:08:01;103016.94;;;10.58
63689;BMP280;54895;40.928;14.480;2023-02-11T02:10:31;103016.59;;;10.88
63689;BMP280;54895;40.928;14.480;2023-02-11T02:12:59;103027.25;;;10.65
63689;BMP280;54895;40.928;14.480;2023-02-11T02:15:33;103021.19;;;10.32
63689;BMP280;54895;40.928;14.480;2023-02-11T02:18:35;103000.72;;;10.14
63689;BMP280;54895;40.928;14.480;2023-02-11T02:21:19;103016.22;;;10.16
63689;BMP280;54895;40.928;14.480;2023-02-11T02:29:36;102994.09;;;10.10
63689;BMP280;54895;40.928;14.480;2023-02-11T02:35:37;102988.28;;;9.70
63689;BMP280;54895;40.928;14.480;2023-02-11T02:40:26;102996.75;;;10.01
63689;BMP280;54895;40.928;14.480;2023-02-11T02:42:54;102980.84;;;9.83
63689;BMP280;54895;40.928;14.480;2023-02-11T02:45:20;102980.00;;;9.68
63689;BMP280;54895;40.928;14.480;2023-02-11T02:47:47;102989.16;;;9.76
63689;BMP280;54895;40.928;14.480;2023-02-11T02:50:16;102993.31;;;9.59
63689;BMP280;54895;40.928;14.480;2023-02-11T02:55:12;102986.97;;;9.47
63689;BMP280;54895;40.928;14.480;2023-02-11T03:00:22;102999.47;;;9.74
63689;BMP280;54895;40.928;14.480;2023-02-11T03:08:24;102994.78;;;9.60
63689;BMP280;54895;40.928;14.480;2023-02-11T03:10:53;102996.94;;;9.97
63689;BMP280;54895;40.928;14.480;2023-02-11T03:13:28;102990.28;;;9.93
63689;BMP280;54895;40.928;14.480;2023-02-11T03:16:03;102980.22;;;9.88
63689;BMP280;54895;40.928;14.480;2023-02-11T03:18:32;102997.09;;;9.94
63689;BMP280;54895;40.928;14.480;2023-02-11T03:21:01;102986.41;;;10.12
63689;BMP280;54895;40.928;14.480;2023-02-11T03:28:40;102998.28;;;9.93
63689;BMP280;54895;40.928;14.480;2023-02-11T03:33:58;103004.47;;;9.99
63689;BMP280;54895;40.928;14.480;2023-02-11T03:36:47;103004.56;;;10.13
63689;BMP280;54895;40.928;14.480;2023-02-11T03:39:37;102996.75;;;10.10
63689;BMP280;54895;40.928;14.480;2023-02-11T03:42:06;102988.75;;;10.19
63689;BMP280;54895;40.928;14.480;2023-02-11T03:44:37;102999.72;;;10.03
63689;BMP280;54895;40.928;14.480;2023-02-11T03:47:07;103005.91;;;10.09
63689;BMP280;54895;40.928;14.480;2023-02-11T03:49:37;103005.66;;;9.80
63689;BMP280;54895;40.928;14.480;2023-02-11T03:52:05;103006.69;;;9.82
63689;BMP280;54895;40.928;14.480;2023-02-11T03:54:37;103012.72;;;10.01
63689;BMP280;54895;40.928;14.480;2023-02-11T03:57:04;102995.34;;;9.82
63689;BMP280;54895;40.928;14.480;2023-02-11T03:59:31;103002.13;;;9.74
63689;BMP280;54895;40.928;14.480;2023-02-11T04:01:57;102998.84;;;9.88
63689;BMP280;54895;40.928;14.480;2023-02-11T04:04:25;103021.75;;;10.03
63689;BMP280;54895;40.928;14.480;2023-02-11T04:06:55;103022.78;;;9.97
63689;BMP280;54895;40.928;14.480;2023-02-11T04:09:25;103020.38;;;10.08
63689;BMP280;54895;40.928;14.480;2023-02-11T04:11:52;103016.00;;;9.96
63689;BMP280;54895;40.928;14.480;2023-02-11T04:14:18;103014.28;;;9.48
63689;BMP280;54895;40.928;14.480;2023-02-11T04:16:44;103014.22;;;10.02
63689;BMP280;54895;40.928;14.480;2023-02-11T04:19:11;103033.06;;;10.22
63689;BMP280;54895;40.928;14.480;2023-02-11T04:21:37;103034.53;;;10.14
63689;BMP280;54895;40.928;14.480;2023-02-11T04:24:03;103024.28;;;9.89
63689;BMP280;54895;40.928;14.480;2023-02-11T04:26:30;103031.41;;;9.65
63689;BMP280;54895;40.928;14.480;2023-02-11T04:28:56;103028.72;;;9.83
63689;BMP280;54895;40.928;14.480;2023-02-11T04:31:22;103026.09;;;9.65
63689;BMP280;54895;40.928;14.480;2023-02-11T04:33:48;103032.78;;;10.11
63689;BMP280;54895;40.928;14.480;2023-02-11T04:39:48;103022.84;;;9.61
63689;BMP280;54895;40.928;14.480;2023-02-11T04:42:15;103025.63;;;9.93
63689;BMP280;54895;40.928;14.480;2023-02-11T04:44:42;103035.78;;;10.04
63689;BMP280;54895;40.928;14.480;2023-02-11T04:47:09;103037.78;;;10.18
63689;BMP280;54895;40.928;14.480;2023-02-11T04:49:39;103035.38;;;9.69
63689;BMP280;54895;40.928;14.480;2023-02-11T04:52:06;103037.44;;;9.74
63689;BMP280;54895;40.928;14.480;2023-02-11T04:54:34;103040.25;;;9.80
63689;BMP280;54895;40.928;14.480;2023-02-11T04:57:01;103042.78;;;9.74
63689;BMP280;54895;40.928;14.480;2023-02-11T04:59:28;103053.53;;;9.89
63689;BMP280;54895;40.928;14.480;2023-02-11T05:01:55;103045.44;;;9.47
63689;BMP280;54895;40.928;14.480;2023-02-11T05:04:23;103048.84;;;9.75
63689;BMP280;54895;40.928;14.480;2023-02-11T05:06:50;103051.34;;;9.78
63689;BMP280;54895;40.928;14.480;2023-02-11T05:09:17;103048.22;;;9.89
63689;BMP280;54895;40.928;14.480;2023-02-11T05:11:44;103052.69;;;9.56
63689;BMP280;54895;40.928;14.480;2023-02-11T05:14:11;103047.66;;;9.49
63689;BMP280;54895;40.928;14.480;2023-02-11T05:16:38;103044.69;;;9.92
63689;BMP280;54895;40.928;14.480;2023-02-11T05:19:05;103052.53;;;9.59
63689;BMP280;54895;40.928;14.480;2023-02-11T05:21:35;103058.56;;;9.96
63689;BMP280;54895;40.928;14.480;2023-02-11T05:24:02;103062.81;;;10.02
63689;BMP280;54895;40.928;14.480;2023-02-11T05:26:31;103058.28;;;9.85
63689;BMP280;54895;40.928;14.480;2023-02-11T05:28:58;103048.84;;;9.57
63689;BMP280;54895;40.928;14.480;2023-02-11T05:31:26;103057.13;;;9.59
63689;BMP280;54895;40.928;14.480;2023-02-11T05:33:53;103056.06;;;9.65
63689;BMP280;54895;40.928;14.480;2023-02-11T05:39:40;103047.06;;;9.45
63689;BMP280;54895;40.928;14.480;2023-02-11T05:42:06;103039.66;;;9.58
63689;BMP280;54895;40.928;14.480;2023-02-11T05:44:32;103061.53;;;9.53
63689;BMP280;54895;40.928;14.480;2023-02-11T05:46:59;103054.28;;;9.44
63689;BMP280;54895;40.928;14.480;2023-02-11T05:49:25;103058.16;;;9.61
63689;BMP280;54895;40.928;14.480;2023-02-11T05:51:51;103056.25;;;9.62
63689;BMP280;54895;40.928;14.480;2023-02-11T05:54:18;103065.94;;;9.74
63689;BMP280;54895;40.928;14.480;2023-02-11T05:56:44;103062.84;;;9.39
63689;BMP280;54895;40.928;14.480;2023-02-11T05:59:13;103066.56;;;9.69
63689;BMP280;54895;40.928;14.480;2023-02-11T06:01:40;103069.03;;;9.72
63689;BMP280;54895;40.928;14.480;2023-02-11T06:04:06;103051.50;;;9.75
63689;BMP280;54895;40.928;14.480;2023-02-11T06:06:33;103063.28;;;9.74
63689;BMP280;54895;40.928;14.480;2023-02-11T06:08:59;103056.53;;;9.55
63689;BMP280;54895;40.928;14.480;2023-02-11T06:11:25;103060.19;;;9.75
63689;BMP280;54895;40.928;14.480;2023-02-11T06:13:52;103069.44;;;10.07
63689;BMP280;54895;40.928;14.480;2023-02-11T06:16:18;103073.63;;;9.99
63689;BMP280;54895;40.928;14.480;2023-02-11T06:18:44;103071.63;;;10.26
63689;BMP280;54895;40.928;14.480;2023-02-11T06:21:11;103064.16;;;9.89
63689;BMP280;54895;40.928;14.480;2023-02-11T06:23:38;103076.88;;;10.03
63689;BMP280;54895;40.928;14.480;2023-02-11T06:26:06;103073.47;;;10.11
63689;BMP280;54895;40.928;14.480;2023-02-11T06:28:33;103081.59;;;9.99
63689;BMP280;54895;40.928;14.480;2023-02-11T06:31:05;103084.47;;;10.37
63689;BMP280;54895;40.928;14.480;2023-02-11T06:33:32;103094.22;;;10.31
63689;BMP280;54895;40.928;14.480;2023-02-11T06:39:43;103101.66;;;10.68
63689;BMP280;54895;40.928;14.480;2023-02-11T06:42:10;103107.53;;;10.72
63689;BMP280;54895;40.928;14.480;2023-02-11T06:44:37;103108.25;;;10.82
63689;BMP280;54895;40.928;14.480;2023-02-11T06:47:04;103106.22;;;11.00
63689;BMP280;54895;40.928;14.480;2023-02-11T06:49:30;103112.84;;;10.81
63689;BMP280;54895;40.928;14.480;2023-02-11T06:51:57;103106.16;;;10.86
63689;BMP280;54895;40.928;14.480;2023-02-11T06:54:24;103102.59;;;10.89
63689;BMP280;54895;40.928;14.480;2023-02-11T06:56:51;103104.66;;;10.85
63689;BMP280;54895;40.928;14.480;2023-02-11T06:59:18;103106.53;;;10.93
63689;BMP280;54895;40.928;14.480;2023-02-11T07:01:48;103115.84;;;10.98
63689;BMP280;54895;40.928;14.480;2023-02-11T07:04:15;103118.06;;;11.23
63689;BMP280;54895;40.928;14.480;2023-02-11T07:06:42;103121.75;;;11.49
63689;BMP280;54895;40.928;14.480;2023-02-11T07:09:09;103124.06;;;11.56
63689;BMP280;54895;40.928;14.480;2023-02-11T07:11:36;103119.22;;;11.69
63689;BMP280;54895;40.928;14.480;2023-02-11T07:14:05;103119.16;;;11.92
63689;BMP280;54895;40.928;14.480;2023-02-11T07:16:34;103119.50;;;11.85
63689;BMP280;54895;40.928;14.480;2023-02-11T07:19:01;103116.56;;;11.98
63689;BMP280;54895;40.928;14.480;2023-02-11T07:21:28;103121.38;;;12.08
63689;BMP280;54895;40.928;14.480;2023-02-11T07:23:55;103116.13;;;12.14
63689;BMP280;54895;40.928;14.480;2023-02-11T07:26:23;103117.84;;;12.31
63689;BMP280;54895;40.928;14.480;2023-02-11T07:28:51;103127.22;;;12.41
63689;BMP280;54895;40.928;14.480;2023-02-11T07:31:25;103126.31;;;12.30
63689;BMP280;54895;40.928;14.480;2023-02-11T07:33:54;103118.13;;;12.68
63689;BMP280;54895;40.928;14.480;2023-02-11T07:39:55;103128.94;;;12.79
63689;BMP280;54895;40.928;14.480;2023-02-11T07:42:21;103099.38;;;13.22
63689;BMP280;54895;40.928;14.480;2023-02-11T07:44:48;103113.75;;;13.24
63689;BMP280;54895;40.928;14.480;2023-02-11T07:47:14;103118.66;;;13.51
63689;BMP280;54895;40.928;14.480;2023-02-11T07:49:40;103114.56;;;13.81
63689;BMP280;54895;40.928;14.480;2023-02-11T07:52:06;103124.19;;;13.68
63689;BMP280;54895;40.928;14.480;2023-02-11T07:54:33;103124.00;;;13.51
63689;BMP280;54895;40.928;14.480;2023-02-11T07:56:59;103130.81;;;13.78
63689;BMP280;54895;40.928;14.480;2023-02-11T07:59:26;103133.44;;;13.72
63689;BMP280;54895;40.928;14.480;2023-02-11T08:01:52;103125.69;;;13.74
63689;BMP280;54895;40.928;14.480;2023-02-11T08:04:19;103136.38;;;14.00
63689;BMP280;54895;40.928;14.480;2023-02-11T08:06:45;103131.97;;;14.02
63689;BMP280;54895;40.928;14.480;2023-02-11T08:09:15;103129.16;;;13.80
63689;BMP280;54895;40.928;14.480;2023-02-11T08:11:42;103136.75;;;13.87
63689;BMP280;54895;40.928;14.480;2023-02-11T08:14:09;103140.00;;;14.02
63689;BMP280;54895;40.928;14.480;2023-02-11T08:16:36;103136.75;;;14.18
63689;BMP280;54895;40.928;14.480;2023-02-11T08:19:14;103148.72;;;14.23
63689;BMP280;54895;40.928;14.480;2023-02-11T08:21:41;103155.31;;;14.27
63689;BMP280;54895;40.928;14.480;2023-02-11T08:24:08;103153.41;;;13.71
63689;BMP280;54895;40.928;14.480;2023-02-11T08:26:35;103155.66;;;13.33
63689;BMP280;54895;40.928;14.480;2023-02-11T08:29:07;103155.72;;;13.18
63689;BMP280;54895;40.928;14.480;2023-02-11T08:31:36;103152.03;;;13.16
63689;BMP280;54895;40.928;14.480;2023-02-11T08:34:05;103145.56;;;13.23
63689;BMP280;54895;40.928;14.480;2023-02-11T08:39:56;103160.97;;;14.04
63689;BMP280;54895;40.928;14.480;2023-02-11T08:42:22;103164.19;;;14.44
63689;BMP280;54895;40.928;14.480;2023-02-11T08:44:49;103164.56;;;14.63
63689;BMP280;54895;40.928;14.480;2023-02-11T08:47:15;103160.28;;;14.82
63689;BMP280;54895;40.928;14.480;2023-02-11T08:49:42;103162.22;;;14.81
63689;BMP280;54895;40.928;14.480;2023-02-11T08:52:09;103153.66;;;14.72
63689;BMP280;54895;40.928;14.480;2023-02-11T08:54:35;103154.06;;;14.23
63689;BMP280;54895;40.928;14.480;2023-02-11T08:57:03;103153.03;;;14.88
63689;BMP280;54895;40.928;14.480;2023-02-11T08:59:30;103161.34;;;14.48
63689;BMP280;54895;40.928;14.480;2023-02-11T09:01:56;103158.09;;;14.80
63689;BMP280;54895;40.928;14.480;2023-02-11T09:04:23;103145.97;;;15.01
63689;BMP280;54895;40.928;14.480;2023-02-11T09:06:50;103158.41;;;14.93
63689;BMP280;54895;40.928;14.480;2023-02-11T09:09:16;103152.41;;;15.20
63689;BMP280;54895;40.928;14.480;2023-02-11T09:11:43;103158.94;;;15.14
63689;BMP280;54895;40.928;14.480;2023-02-11T09:14:21;103149.72;;;15.31
63689;BMP280;54895;40.928;14.480;2023-02-11T09:16:48;103152.19;;;15.46
63689;BMP280;54895;40.928;14.480;2023-02-11T09:19:16;103151.47;;;15.56
63689;BMP280;54895;40.928;14.480;2023-02-11T09:21:43;103148.34;;;15.85
63689;BMP280;54895;40.928;14.480;2023-02-11T09:24:10;103148.56;;;15.93
63689;BMP280;54895;40.928;14.480;2023-02-11T09:26:37;103149.56;;;15.84
63689;BMP280;54895;40.928;14.480;2023-02-11T09:29:04;103150.53;;;15.81
63689;BMP280;54895;40.928;14.480;2023-02-11T09:31:32;103156.41;;;16.07
63689;BMP280;54895;40.928;14.480;2023-02-11T09:34:01;103158.06;;;16.21
63689;BMP280;54895;40.928;14.480;2023-02-11T09:36:32;103158.72;;;16.49
63689;BMP280;54895;40.928;14.480;2023-02-11T09:39:00;103169.16;;;16.69
63689;BMP280;54895;40.928;14.480;2023-02-11T09:42:05;103163.44;;;15.94
63689;BMP280;54895;40.928;14.480;2023-02-11T09:44:35;103170.06;;;15.82
63689;BMP280;54895;40.928;14.480;2023-02-11T09:47:38;103169.09;;;16.01
63689;BMP280;54895;40.928;14.480;2023-02-11T09:50:03;103173.63;;;16.44
63689;BMP280;54895;40.928;14.480;2023-02-11T09:57:44;103169.03;;;16.34
63689;BMP280;54895;40.928;14.480;2023-02-11T10:00:28;103171.16;;;16.68
63689;BMP280;54895;40.928;14.480;2023-02-11T10:05:42;103167.34;;;16.99
63689;BMP280;54895;40.928;14.480;2023-02-11T10:08:21;103166.19;;;16.89
63689;BMP280;54895;40.928;14.480;2023-02-11T10:24:02;103153.06;;;17.50
63689;BMP280;54895;40.928;14.480;2023-02-11T10:26:31;103147.53;;;17.96
63689;BMP280;54895;40.928;14.480;2023-02-11T10:29:01;103148.84;;;17.60
63689;BMP280;54895;40.928;14.480;2023-02-11T10:31:35;103151.94;;;17.99
63689;BMP280;54895;40.928;14.480;2023-02-11T10:34:11;103147.28;;;17.70
63689;BMP280;54895;40.928;14.480;2023-02-11T10:40:01;103138.94;;;17.97
63689;BMP280;54895;40.928;14.480;2023-02-11T10:42:28;103133.19;;;18.12
63689;BMP280;54895;40.928;14.480;2023-02-11T10:45:02;103122.50;;;18.01
63689;BMP280;54895;40.928;14.480;2023-02-11T10:47:33;103128.28;;;18.53
63689;BMP280;54895;40.928;14.480;2023-02-11T10:50:22;103120.03;;;18.03
63689;BMP280;54895;40.928;14.480;2023-02-11T10:52:50;103113.59;;;18.30
63689;BMP280;54895;40.928;14.480;2023-02-11T10:55:19;103122.53;;;18.80
63689;BMP280;54895;40.928;14.480;2023-02-11T10:58:02;103112.75;;;17.98
63689;BMP280;54895;40.928;14.480;2023-02-11T11:00:38;103112.16;;;17.57
63689;BMP280;54895;40.928;14.480;2023-02-11T11:03:35;103106.63;;;17.09
63689;BMP280;54895;40.928;14.480;2023-02-11T11:06:07;103100.28;;;17.41
63689;BMP280;54895;40.928;14.480;2023-02-11T11:08:44;103097.69;;;16.90
63689;BMP280;54895;40.928;14.480;2023-02-11T11:13:57;103098.22;;;17.53
63689;BMP280;54895;40.928;14.480;2023-02-11T11:16:28;103091.31;;;17.87
63689;BMP280;54895;40.928;14.480;2023-02-11T11:24:17;103063.63;;;17.86
63689;BMP280;54895;40.928;14.480;2023-02-11T11:26:48;103077.59;;;18.46
63689;BMP280;54895;40.928;14.480;2023-02-11T11:34:40;103071.84;;;18.73
63689;BMP280;54895;40.928;14.480;2023-02-11T11:40:28;103070.34;;;17.21
63689;BMP280;54895;40.928;14.480;2023-02-11T11:43:24;103067.72;;;17.10
63689;BMP280;54895;40.928;14.480;2023-02-11T11:45:56;103065.06;;;17.39
63689;BMP280;54895;40.928;14.480;2023-02-11T11:48:33;103060.78;;;18.40
63689;BMP280;54895;40.928;14.480;2023-02-11T11:51:10;103063.53;;;18.16
63689;BMP280;54895;40.928;14.480;2023-02-11T11:53:45;103058.38;;;18.55
63689;BMP280;54895;40.928;14.480;2023-02-11T11:56:19;103049.69;;;18.80
63689;BMP280;54895;40.928;14.480;2023-02-11T11:58:48;103048.19;;;18.97
63689;BMP280;54895;40.928;14.480;2023-02-11T12:17:33;103023.09;;;17.25
63689;BMP280;54895;40.928;14.480;2023-02-11T12:25:29;103013.44;;;18.26
63689;BMP280;54895;40.928;14.480;2023-02-11T12:28:23;103011.56;;;18.21
63689;BMP280;54895;40.928;14.480;2023-02-11T12:31:13;103007.13;;;18.55
63689;BMP280;54895;40.928;14.480;2023-02-11T12:34:08;103008.19;;;18.15
63689;BMP280;54895;40.928;14.480;2023-02-11T12:36:52;103011.16;;;17.93
63689;BMP280;54895;40.928;14.480;2023-02-11T12:40:08;103004.66;;;17.35
63689;BMP280;54895;40.928;14.480;2023-02-11T12:43:21;103006.16;;;18.02
63689;BMP280;54895;40.928;14.480;2023-02-11T12:46:10;103002.34;;;17.92
63689;BMP280;54895;40.928;14.480;2023-02-11T12:54:28;103002.63;;;18.63
63689;BMP280;54895;40.928;14.480;2023-02-11T13:05:22;102987.22;;;18.08
63689;BMP280;54895;40.928;14.480;2023-02-11T13:07:52;102985.75;;;17.40
63689;BMP280;54895;40.928;14.480;2023-02-11T13:10:35;102982.44;;;17.29
63689;BMP280;54895;40.928;14.480;2023-02-11T13:13:14;102977.19;;;17.42
63689;BMP280;54895;40.928;14.480;2023-02-11T13:15:50;102970.75;;;18.11
63689;BMP280;54895;40.928;14.480;2023-02-11T13:20:50;102981.53;;;18.61
63689;BMP280;54895;40.928;14.480;2023-02-11T13:26:18;102979.78;;;17.71
63689;BMP280;54895;40.928;14.480;2023-02-11T13:29:03;102977.72;;;18.20
63689;BMP280;54895;40.928;14.480;2023-02-11T13:31:31;102985.41;;;18.66
63689;BMP280;54895;40.928;14.480;2023-02-11T13:33:57;102977.75;;;18.82
63689;BMP280;54895;40.928;14.480;2023-02-11T13:36:26;102982.56;;;18.89
63689;BMP280;54895;40.928;14.480;2023-02-11T13:39:01;102984.78;;;18.73
63689;BMP280;54895;40.928;14.480;2023-02-11T13:41:32;102984.50;;;19.20
63689;BMP280;54895;40.928;14.480;2023-02-11T13:49:31;102979.28;;;18.47
63689;BMP280;54895;40.928;14.480;2023-02-11T13:52:03;102984.91;;;18.67
63689;BMP280;54895;40.928;14.480;2023-02-11T13:54:33;102987.47;;;19.04
63689;BMP280;54895;40.928;14.480;2023-02-11T13:59:51;102974.06;;;19.63
63689;BMP280;54895;40.928;14.480;2023-02-11T14:02:29;102969.00;;;19.60
63689;BMP280;54895;40.928;14.480;2023-02-11T14:11:00;102977.50;;;18.99
63689;BMP280;54895;40.928;14.480;2023-02-11T14:13:32;102973.28;;;19.42
63689;BMP280;54895;40.928;14.480;2023-02-11T14:16:14;102976.94;;;18.75
63689;BMP280;54895;40.928;14.480;2023-02-11T14:21:21;102974.28;;;19.00
63689;BMP280;54895;40.928;14.480;2023-02-11T14:23:49;102963.06;;;19.09
63689;BMP280;54895;40.928;14.480;2023-02-11T14:29:02;102957.91;;;19.24
63689;BMP280;54895;40.928;14.480;2023-02-11T14:40:40;102962.16;;;19.07
63689;BMP280;54895;40.928;14.480;2023-02-11T14:43:15;102966.72;;;19.38
63689;BMP280;54895;40.928;14.480;2023-02-11T14:45:46;102962.91;;;19.20
63689;BMP280;54895;40.928;14.480;2023-02-11T14:48:16;102961.25;;;19.90
63689;BMP280;54895;40.928;14.480;2023-02-11T14:50:53;102957.88;;;18.85
63689;BMP280;54895;40.928;14.480;2023-02-11T14:53:24;102959.75;;;18.90
63689;BMP280;54895;40.928;14.480;2023-02-11T14:55:52;102955.56;;;18.77
63689;BMP280;54895;40.928;14.480;2023-02-11T14:58:24;102958.44;;;18.66
63689;BMP280;54895;40.928;14.480;2023-02-11T15:03:25;102962.16;;;18.13
63689;BMP280;54895;40.928;14.480;2023-02-11T15:06:04;102958.19;;;18.51
63689;BMP280;54895;40.928;14.480;2023-02-11T15:08:33;102956.59;;;18.42
63689;BMP280;54895;40.928;14.480;2023-02-11T15:11:01;102957.03;;;18.28
63689;BMP280;54895;40.928;14.480;2023-02-11T15:13:30;102947.66;;;18.16
63689;BMP280;54895;40.928;14.480;2023-02-11T15:16:05;102950.56;;;17.81
63689;BMP280;54895;40.928;14.480;2023-02-11T15:18:36;102940.72;;;17.65
63689;BMP280;54895;40.928;14.480;2023-02-11T15:21:04;102946.31;;;17.43
63689;BMP280;54895;40.928;14.480;2023-02-11T15:23:31;102942.59;;;17.70
63689;BMP280;54895;40.928;14.480;2023-02-11T15:26:12;102940.31;;;17.98
63689;BMP280;54895;40.928;14.480;2023-02-11T15:28:50;102944.66;;;18.38
63689;BMP280;54895;40.928;14.480;2023-02-11T15:31:20;102941.78;;;17.99
63689;BMP280;54895;40.928;14.480;2023-02-11T15:33:48;102935.09;;;17.63
63689;BMP280;54895;40.928;14.480;2023-02-11T15:40:26;102941.19;;;17.21
63689;BMP280;54895;40.928;14.480;2023-02-11T15:43:06;102931.97;;;17.11
63689;BMP280;54895;40.928;14.480;2023-02-11T15:45:59;102940.59;;;17.04
63689;BMP280;54895;40.928;14.480;2023-02-11T15:48:34;102952.16;;;16.99
63689;BMP280;54895;40.928;14.480;2023-02-11T15:51:10;102939.84;;;16.39
63689;BMP280;54895;40.928;14.480;2023-02-11T15:53:40;102939.69;;;16.96
63689;BMP280;54895;40.928;14.480;2023-02-11T15:56:19;102937.66;;;16.78
63689;BMP280;54895;40.928;14.480;2023-02-11T15:58:50;102919.97;;;16.58
63689;BMP280;54895;40.928;14.480;2023-02-11T16:01:17;102928.88;;;16.72
63689;BMP280;54895;40.928;14.480;2023-02-11T16:03:48;102913.84;;;16.87
63689;BMP280;54895;40.928;14.480;2023-02-11T16:06:22;102921.41;;;16.89
63689;BMP280;54895;40.928;14.480;2023-02-11T16:17:04;102933.53;;;17.01
63689;BMP280;54895;40.928;14.480;2023-02-11T16:19:34;102928.56;;;16.81
63689;BMP280;54895;40.928;14.480;2023-02-11T16:22:06;102933.22;;;16.46
63689;BMP280;54895;40.928;14.480;2023-02-11T16:24:35;102936.13;;;16.07
63689;BMP280;54895;40.928;14.480;2023-02-11T16:27:06;102934.03;;;15.78
63689;BMP280;54895;40.928;14.480;2023-02-11T16:29:35;102915.56;;;15.47
63689;BMP280;54895;40.928;14.480;2023-02-11T16:32:20;102931.44;;;15.40
63689;BMP280;54895;40.928;14.480;2023-02-11T16:34:47;102945.38;;;15.16
63689;BMP280;54895;40.928;14.480;2023-02-11T16:37:14;102941.44;;;14.73
63689;BMP280;54895;40.928;14.480;2023-02-11T16:39:40;102942.06;;;14.35
63689;BMP280;54895;40.928;14.480;2023-02-11T16:42:07;102949.78;;;14.17
63689;BMP280;54895;40.928;14.480;2023-02-11T16:44:33;102940.34;;;13.79
63689;BMP280;54895;40.928;14.480;2023-02-11T16:47:01;102947.09;;;13.69
63689;BMP280;54895;40.928;14.480;2023-02-11T16:49:33;102948.59;;;14.18
63689;BMP280;54895;40.928;14.480;2023-02-11T16:52:05;102949.81;;;13.75
63689;BMP280;54895;40.928;14.480;2023-02-11T16:54:32;102951.84;;;13.54
63689;BMP280;54895;40.928;14.480;2023-02-11T16:56:58;102950.31;;;13.42
63689;BMP280;54895;40.928;14.480;2023-02-11T16:59:25;102946.84;;;13.36
63689;BMP280;54895;40.928;14.480;2023-02-11T17:01:52;102949.59;;;13.17
63689;BMP280;54895;40.928;14.480;2023-02-11T17:04:23;102948.75;;;13.05
63689;BMP280;54895;40.928;14.480;2023-02-11T17:06:50;102938.53;;;13.04
63689;BMP280;54895;40.928;14.480;2023-02-11T17:09:20;102943.72;;;12.87
63689;BMP280;54895;40.928;14.480;2023-02-11T17:11:47;102943.72;;;12.87
63689;BMP280;54895;40.928;14.480;2023-02-11T17:14:13;102940.16;;;12.96